createdAt,value
2018-12-24T00:00:34.257Z,16.57
2018-12-24T00:03:02.330Z,16.43
2018-12-24T00:05:30.231Z,18.03
2018-12-24T00:07:58.752Z,16.13
2018-12-24T00:10:26.703Z,18.20
2018-12-24T00:12:54.727Z,15.47
2018-12-24T00:15:22.958Z,13.83
2018-12-24T00:17:50.864Z,15.87
2018-12-24T00:20:19.485Z,13.00
2018-12-24T00:22:47.502Z,16.73
2018-12-24T00:25:16.452Z,13.20
2018-12-24T00:27:44.371Z,18.03
2018-12-24T00:30:12.419Z,14.83
2018-12-24T00:32:40.366Z,12.97
2018-12-24T00:35:08.352Z,18.00
2018-12-24T00:37:36.267Z,13.17
2018-12-24T00:40:04.418Z,12.73
2018-12-24T00:42:32.348Z,12.33
2018-12-24T00:45:00.319Z,13.17
2018-12-24T00:47:28.428Z,12.20
2018-12-24T00:49:56.532Z,12.40
2018-12-24T00:52:24.365Z,13.00
2018-12-24T00:54:52.377Z,12.13
2018-12-24T00:57:20.604Z,15.40
2018-12-24T00:59:48.523Z,14.27
2018-12-24T01:02:16.512Z,9.27
2018-12-24T01:04:44.431Z,13.03
2018-12-24T01:07:12.312Z,14.67
2018-12-24T01:09:40.242Z,11.43
2018-12-24T01:12:08.179Z,13.90
2018-12-24T01:14:36.168Z,13.00
2018-12-24T01:17:04.082Z,13.37
2018-12-24T01:19:32.328Z,12.83
2018-12-24T01:22:00.272Z,9.73
2018-12-24T01:24:28.329Z,13.20
2018-12-24T01:26:56.382Z,11.13
2018-12-24T01:29:24.468Z,9.53
2018-12-24T01:31:52.334Z,11.23
2018-12-24T01:34:20.310Z,13.93
2018-12-24T01:36:48.315Z,13.80
2018-12-24T01:39:16.415Z,15.70
2018-12-24T01:41:44.334Z,9.80
2018-12-24T01:44:13.480Z,10.97
2018-12-24T01:46:41.517Z,13.33
2018-12-24T01:49:09.781Z,12.90
2018-12-24T01:51:37.666Z,10.70
2018-12-24T01:54:06.063Z,9.70
2018-12-24T01:56:34.049Z,12.83
2018-12-24T01:59:02.010Z,14.27
2018-12-24T02:01:29.920Z,14.87
2018-12-24T02:03:58.278Z,12.33
2018-12-24T02:06:26.243Z,14.97
2018-12-24T02:08:54.192Z,13.23
2018-12-24T02:11:22.138Z,12.53
2018-12-24T02:13:50.055Z,14.37
2018-12-24T02:16:18.419Z,13.47
2018-12-24T02:18:46.339Z,12.80
2018-12-24T02:21:14.326Z,12.43
2018-12-24T02:23:42.269Z,11.43
2018-12-24T02:26:10.078Z,15.23
2018-12-24T02:28:38.024Z,10.87
2018-12-24T02:31:06.078Z,14.23
2018-12-24T02:33:34.707Z,11.23
2018-12-24T02:36:02.746Z,9.40
2018-12-24T02:38:30.754Z,12.87
2018-12-24T02:40:58.653Z,11.17
2018-12-24T02:43:26.761Z,12.13
2018-12-24T02:45:54.749Z,14.27
2018-12-24T02:48:22.718Z,11.43
2018-12-24T02:50:50.637Z,12.37
2018-12-24T02:53:18.463Z,10.47
2018-12-24T02:55:46.340Z,13.60
2018-12-24T02:58:14.217Z,13.90
2018-12-24T03:00:42.559Z,9.80
2018-12-24T03:03:10.443Z,14.33
2018-12-24T03:05:38.564Z,12.40
2018-12-24T03:08:06.402Z,15.90
2018-12-24T03:10:34.276Z,12.57
2018-12-24T03:13:03.041Z,11.83
2018-12-24T03:15:31.378Z,13.47
2018-12-24T03:18:07.142Z,13.53
2018-12-24T03:20:35.316Z,15.00
2018-12-24T03:23:03.240Z,16.20
2018-12-24T03:25:31.533Z,14.50
2018-12-24T03:28:00.073Z,12.00
2018-12-24T03:30:28.017Z,14.60
2018-12-24T03:32:55.989Z,15.17
2018-12-24T03:35:23.906Z,15.03
2018-12-24T03:37:51.861Z,15.40
2018-12-24T03:40:19.975Z,11.90
2018-12-24T03:42:48.310Z,13.93
2018-12-24T03:45:17.680Z,13.20
2018-12-24T03:47:45.615Z,15.77
2018-12-24T03:50:13.440Z,16.40
2018-12-24T03:52:41.276Z,13.37
2018-12-24T03:55:09.198Z,13.10
2018-12-24T03:57:37.152Z,14.73
2018-12-24T04:00:05.370Z,13.30
2018-12-24T04:02:33.181Z,13.03
2018-12-24T04:05:01.085Z,15.53
2018-12-24T04:07:29.030Z,15.53
2018-12-24T04:09:57.431Z,15.03
2018-12-24T04:12:25.475Z,17.30
2018-12-24T04:14:53.626Z,16.40
2018-12-24T04:17:21.692Z,14.63
2018-12-24T04:19:49.543Z,13.33
2018-12-24T04:22:17.598Z,15.80
2018-12-24T04:24:45.499Z,18.43
2018-12-24T04:27:13.475Z,14.90
2018-12-24T04:29:41.425Z,13.93
2018-12-24T04:32:09.379Z,14.30
2018-12-24T04:34:37.331Z,15.27
2018-12-24T04:37:05.562Z,17.30
2018-12-24T04:39:33.563Z,15.43
2018-12-24T04:42:01.432Z,15.23
2018-12-24T04:44:29.379Z,12.43
2018-12-24T04:46:57.402Z,16.40
2018-12-24T04:49:25.764Z,15.20
2018-12-24T04:51:53.698Z,13.17
2018-12-24T04:54:21.555Z,15.30
2018-12-24T04:56:49.487Z,12.43
2018-12-24T04:59:17.355Z,16.37
2018-12-24T05:01:45.795Z,14.80
2018-12-24T05:04:13.755Z,12.60
2018-12-24T05:06:41.764Z,16.97
2018-12-24T05:09:09.793Z,12.43
2018-12-24T05:11:37.759Z,14.53
2018-12-24T05:14:05.729Z,16.67
2018-12-24T05:16:33.648Z,14.83
2018-12-24T05:19:01.559Z,15.63
2018-12-24T05:21:29.428Z,12.63
2018-12-24T05:23:57.507Z,12.43
2018-12-24T05:26:25.379Z,17.37
2018-12-24T05:28:53.255Z,16.13
2018-12-24T05:31:21.252Z,13.67
2018-12-24T05:33:49.145Z,17.23
2018-12-24T05:36:16.995Z,15.97
2018-12-24T05:38:44.898Z,15.60
2018-12-24T05:41:13.002Z,14.57
2018-12-24T05:43:49.212Z,14.37
2018-12-24T05:46:10.776Z,14.50
2018-12-24T05:48:38.584Z,14.57
2018-12-24T05:51:06.479Z,13.60
2018-12-24T05:53:34.619Z,12.00
2018-12-24T05:56:02.590Z,16.53
2018-12-24T05:58:30.491Z,15.40
2018-12-24T06:00:58.727Z,13.63
2018-12-24T06:03:26.639Z,16.10
2018-12-24T06:05:54.528Z,14.10
2018-12-24T06:08:22.488Z,14.47
2018-12-24T06:10:50.871Z,13.70
2018-12-24T06:13:38.430Z,13.00
2018-12-24T06:16:06.739Z,13.53
2018-12-24T06:18:34.612Z,15.73
2018-12-24T06:21:02.583Z,13.27
2018-12-24T06:23:30.506Z,17.20
2018-12-24T06:25:58.463Z,15.60
2018-12-24T06:28:26.431Z,14.07
2018-12-24T06:30:54.475Z,13.83
2018-12-24T06:33:22.612Z,12.00
2018-12-24T06:35:50.495Z,11.67
2018-12-24T06:38:18.415Z,10.93
2018-12-24T06:40:46.312Z,10.80
2018-12-24T06:43:14.160Z,10.83
2018-12-24T06:45:42.082Z,9.70
2018-12-24T06:48:10.041Z,9.03
2018-12-24T06:50:37.939Z,7.23
2018-12-24T06:53:05.832Z,7.63
2018-12-24T06:55:33.842Z,6.60
2018-12-24T06:58:01.712Z,6.83
2018-12-24T07:00:52.180Z,7.03
2018-12-24T07:03:20.123Z,7.47
2018-12-24T07:05:48.144Z,8.23
2018-12-24T07:08:16.145Z,9.60
2018-12-24T07:10:44.030Z,10.87
2018-12-24T07:13:12.478Z,9.70
2018-12-24T07:15:40.351Z,9.83
2018-12-24T07:18:08.524Z,10.57
2018-12-24T07:20:36.379Z,11.10
2018-12-24T07:23:04.315Z,11.00
2018-12-24T07:25:32.253Z,13.53
2018-12-24T07:28:00.513Z,11.87
2018-12-24T07:30:28.438Z,11.03
2018-12-24T07:32:56.387Z,10.60
2018-12-24T07:35:24.391Z,8.90
2018-12-24T07:37:52.819Z,10.20
2018-12-24T07:40:21.092Z,8.23
2018-12-24T07:42:49.019Z,8.73
2018-12-24T07:45:18.287Z,6.00
2018-12-24T07:47:46.204Z,10.10
2018-12-24T07:50:14.181Z,7.17
2018-12-24T07:52:42.150Z,8.73
2018-12-24T07:55:10.048Z,9.30
2018-12-24T07:57:38.421Z,7.40
2018-12-24T08:00:07.140Z,7.50
2018-12-24T08:02:35.087Z,9.23
2018-12-24T08:05:03.148Z,12.73
2018-12-24T08:07:31.007Z,9.80
2018-12-24T08:09:58.930Z,14.73
2018-12-24T08:12:26.904Z,13.40
2018-12-24T08:14:54.860Z,18.00
2018-12-24T08:17:22.814Z,19.30
2018-12-24T08:19:50.778Z,14.50
2018-12-24T08:22:18.750Z,13.20
2018-12-24T08:24:46.695Z,11.60
2018-12-24T08:27:14.923Z,10.53
2018-12-24T08:29:42.816Z,9.93
2018-12-24T08:32:11.581Z,9.83
2018-12-24T08:34:39.615Z,10.80
2018-12-24T08:37:07.475Z,14.30
2018-12-24T08:39:35.439Z,13.83
2018-12-24T08:42:03.810Z,12.57
2018-12-24T08:44:31.808Z,10.33
2018-12-24T08:46:59.762Z,10.83
2018-12-24T08:49:27.647Z,10.80
2018-12-24T08:51:55.639Z,9.97
2018-12-24T08:54:23.703Z,10.77
2018-12-24T08:56:51.718Z,8.57
2018-12-24T08:59:20.015Z,9.40
2018-12-24T09:01:48.075Z,12.20
2018-12-24T09:04:16.035Z,10.80
2018-12-24T09:06:43.910Z,10.97
2018-12-24T09:09:11.879Z,10.07
2018-12-24T09:11:39.803Z,10.47
2018-12-24T09:14:07.922Z,16.80
2018-12-24T09:16:35.836Z,12.53
2018-12-24T09:19:03.820Z,15.23
2018-12-24T09:21:31.707Z,13.67
2018-12-24T09:23:59.563Z,12.63
2018-12-24T09:26:27.515Z,10.93
2018-12-24T09:28:56.642Z,10.43
2018-12-24T09:31:24.627Z,11.20
2018-12-24T09:33:53.031Z,16.43
2018-12-24T09:36:21.103Z,15.13
2018-12-24T09:38:49.011Z,14.33
2018-12-24T09:41:17.527Z,10.30
2018-12-24T09:43:45.600Z,10.90
2018-12-24T09:46:13.584Z,13.27
2018-12-24T09:48:41.524Z,14.53
2018-12-24T09:51:09.655Z,13.00
2018-12-24T09:53:37.547Z,12.33
2018-12-24T09:56:05.526Z,11.37
2018-12-24T09:58:33.412Z,10.50
2018-12-24T10:01:01.605Z,14.00
2018-12-24T10:03:37.841Z,12.03
2018-12-24T10:06:11.999Z,28.87
2018-12-24T10:08:40.247Z,21.93
2018-12-24T10:11:16.240Z,13.53
2018-12-24T10:13:44.194Z,12.20
2018-12-24T10:16:12.035Z,11.87
2018-12-24T10:18:40.240Z,13.83
2018-12-24T10:21:08.186Z,11.73
2018-12-24T10:23:36.203Z,11.20
2018-12-24T10:26:04.259Z,11.53
2018-12-24T10:28:32.149Z,11.80
2018-12-24T10:31:00.543Z,12.43
2018-12-24T10:33:28.486Z,14.47
2018-12-24T10:35:56.476Z,12.23
2018-12-24T10:38:24.934Z,12.33
2018-12-24T10:41:08.896Z,13.80
2018-12-24T10:43:36.975Z,14.30
2018-12-24T10:46:04.873Z,12.83
2018-12-24T10:48:33.106Z,11.00
2018-12-24T10:51:01.297Z,11.33
2018-12-24T10:53:29.639Z,12.97
2018-12-24T10:55:57.547Z,9.80
2018-12-24T10:58:25.443Z,14.17
2018-12-24T11:00:53.398Z,13.00
2018-12-24T11:03:21.475Z,13.80
2018-12-24T11:05:49.513Z,15.17
2018-12-24T11:08:17.776Z,15.60
2018-12-24T11:10:46.693Z,14.90
2018-12-24T11:13:14.759Z,15.20
2018-12-24T11:15:43.038Z,13.10
2018-12-24T11:18:11.562Z,15.07
2018-12-24T11:20:39.431Z,11.40
2018-12-24T11:23:07.387Z,13.80
2018-12-24T11:25:35.251Z,14.50
2018-12-24T11:28:03.235Z,14.43
2018-12-24T11:30:31.105Z,13.83
2018-12-24T11:32:59.044Z,20.27
2018-12-24T11:35:27.478Z,79.00
2018-12-24T11:37:55.462Z,129.40
2018-12-24T11:40:23.592Z,122.53
2018-12-24T11:42:51.663Z,88.83
2018-12-24T11:45:19.576Z,57.93
2018-12-24T11:47:47.660Z,33.97
2018-12-24T11:50:15.543Z,18.83
2018-12-24T11:52:43.664Z,20.47
2018-12-24T11:55:11.592Z,15.77
2018-12-24T11:57:39.467Z,14.33
2018-12-24T12:00:07.803Z,16.77
2018-12-24T12:02:35.839Z,15.43
2018-12-24T12:05:04.200Z,15.23
2018-12-24T12:07:32.416Z,13.47
2018-12-24T12:10:00.767Z,13.80
2018-12-24T12:12:28.653Z,13.70
2018-12-24T12:15:18.868Z,13.77
2018-12-24T12:17:46.934Z,17.20
2018-12-24T12:20:15.019Z,14.73
2018-12-24T12:22:42.939Z,13.10
2018-12-24T12:25:10.976Z,13.30
2018-12-24T12:27:39.196Z,13.93
2018-12-24T12:30:08.815Z,15.80
2018-12-24T12:32:36.823Z,11.47
2018-12-24T12:35:04.802Z,11.27
2018-12-24T12:37:32.744Z,12.77
2018-12-24T12:40:00.794Z,13.77
2018-12-24T12:42:28.699Z,12.93
2018-12-24T12:44:56.579Z,21.80
2018-12-24T12:47:24.975Z,17.50
2018-12-24T12:49:52.962Z,15.13
2018-12-24T12:52:20.927Z,12.57
2018-12-24T12:54:49.120Z,13.20
2018-12-24T12:57:17.008Z,11.00
2018-12-24T12:59:44.899Z,11.67
2018-12-24T13:02:12.811Z,13.37
2018-12-24T13:04:40.832Z,14.00
2018-12-24T13:07:08.891Z,15.63
2018-12-24T13:09:36.914Z,10.77
2018-12-24T13:12:04.867Z,12.37
2018-12-24T13:14:55.543Z,12.83
2018-12-24T13:17:23.426Z,11.67
2018-12-24T13:19:51.283Z,10.93
2018-12-24T13:22:19.263Z,10.90
2018-12-24T13:24:47.167Z,12.40
2018-12-24T13:27:15.104Z,10.70
2018-12-24T13:29:42.991Z,10.37
2018-12-24T13:32:11.179Z,11.07
2018-12-24T13:34:39.206Z,11.57
2018-12-24T13:37:07.082Z,9.80
2018-12-24T13:39:34.999Z,15.20
2018-12-24T13:42:02.886Z,9.50
2018-12-24T13:44:31.218Z,11.20
2018-12-24T13:46:59.147Z,11.80
2018-12-24T13:49:27.138Z,9.43
2018-12-24T13:51:55.054Z,9.63
2018-12-24T13:54:23.220Z,11.77
2018-12-24T13:56:51.217Z,11.03
2018-12-24T13:59:19.190Z,10.27
2018-12-24T14:01:47.079Z,10.03
2018-12-24T14:04:14.999Z,13.37
2018-12-24T14:06:43.150Z,14.20
2018-12-24T14:09:11.054Z,16.07
2018-12-24T14:11:39.028Z,15.77
2018-12-24T14:14:07.014Z,14.00
2018-12-24T14:16:35.003Z,16.17
2018-12-24T14:19:02.895Z,15.63
2018-12-24T14:21:30.838Z,19.37
2018-12-24T14:23:58.823Z,14.63
2018-12-24T14:26:26.773Z,13.70
2018-12-24T14:28:54.784Z,22.23
2018-12-24T14:31:22.816Z,19.13
2018-12-24T14:33:50.819Z,14.63
2018-12-24T14:36:19.040Z,17.73
2018-12-24T14:38:47.353Z,18.13
2018-12-24T14:41:15.280Z,15.27
2018-12-24T14:43:43.675Z,17.93
2018-12-24T14:46:11.848Z,18.17
2018-12-24T14:48:39.776Z,18.57
2018-12-24T14:51:08.259Z,23.23
2018-12-24T14:53:36.203Z,13.60
2018-12-24T14:56:04.233Z,18.83
2018-12-24T14:58:32.094Z,18.57
2018-12-24T15:01:00.003Z,18.53
2018-12-24T15:03:28.050Z,18.83
2018-12-24T15:05:55.969Z,17.00
2018-12-24T15:08:23.884Z,14.90
2018-12-24T15:10:51.848Z,14.53
2018-12-24T15:13:19.971Z,13.83
2018-12-24T15:16:13.705Z,17.23
2018-12-24T15:18:41.674Z,15.30
2018-12-24T15:21:09.744Z,17.40
2018-12-24T15:23:37.959Z,15.43
2018-12-24T15:26:05.930Z,15.47
2018-12-24T15:28:33.812Z,13.27
2018-12-24T15:31:01.701Z,15.50
2018-12-24T15:33:29.664Z,16.17
2018-12-24T15:35:57.652Z,19.50
2018-12-24T15:38:25.549Z,13.50
2018-12-24T15:40:53.503Z,19.33
2018-12-24T15:43:21.474Z,26.30
2018-12-24T15:45:49.503Z,23.10
2018-12-24T15:48:17.640Z,17.83
2018-12-24T15:50:45.616Z,18.37
2018-12-24T15:53:13.595Z,17.40
2018-12-24T15:55:41.559Z,17.70
2018-12-24T15:58:09.885Z,16.93
2018-12-24T16:00:37.872Z,18.63
2018-12-24T16:03:05.936Z,16.43
2018-12-24T16:05:33.914Z,19.47
2018-12-24T16:08:01.825Z,22.00
2018-12-24T16:10:29.743Z,24.00
2018-12-24T16:12:57.655Z,20.53
2018-12-24T16:15:59.583Z,21.87
2018-12-24T16:18:28.092Z,27.33
2018-12-24T16:20:56.143Z,32.63
2018-12-24T16:23:23.999Z,38.20
2018-12-24T16:25:52.206Z,36.97
2018-12-24T16:28:20.108Z,32.50
2018-12-24T16:30:48.602Z,28.93
2018-12-24T16:33:16.821Z,26.33
2018-12-24T16:35:45.227Z,23.63
2018-12-24T16:38:13.275Z,24.27
2018-12-24T16:40:41.219Z,29.00
2018-12-24T16:43:09.174Z,28.07
2018-12-24T16:45:37.180Z,29.53
2018-12-24T16:48:05.347Z,31.17
2018-12-24T16:50:33.289Z,26.07
2018-12-24T16:53:01.223Z,27.57
2018-12-24T16:55:29.184Z,30.57
2018-12-24T16:57:57.011Z,37.30
2018-12-24T17:00:24.912Z,30.93
2018-12-24T17:02:52.790Z,31.43
2018-12-24T17:05:20.887Z,34.70
2018-12-24T17:07:48.867Z,31.93
2018-12-24T17:10:17.026Z,25.77
2018-12-24T17:12:44.883Z,30.77
2018-12-24T17:15:48.516Z,27.37
2018-12-24T17:18:15.611Z,23.27
2018-12-24T17:20:43.529Z,22.57
2018-12-24T17:23:11.544Z,21.27
2018-12-24T17:25:39.420Z,19.43
2018-12-24T17:28:07.474Z,18.07
2018-12-24T17:30:36.234Z,18.43
2018-12-24T17:33:04.389Z,20.83
2018-12-24T17:35:32.311Z,21.43
2018-12-24T17:38:00.193Z,18.43
2018-12-24T17:40:28.124Z,14.93
2018-12-24T17:42:56.041Z,16.07
2018-12-24T17:45:23.951Z,19.17
2018-12-24T17:47:52.102Z,22.70
2018-12-24T17:50:39.667Z,29.67
2018-12-24T17:53:08.047Z,25.40
2018-12-24T17:55:36.126Z,16.40
2018-12-24T17:58:04.116Z,18.00
2018-12-24T18:00:32.034Z,19.17
2018-12-24T18:02:59.951Z,16.33
2018-12-24T18:05:27.861Z,15.50
2018-12-24T18:07:55.719Z,15.67
2018-12-24T18:10:23.917Z,16.20
2018-12-24T18:12:51.763Z,20.83
2018-12-24T18:15:45.476Z,30.67
2018-12-24T18:18:13.182Z,30.13
2018-12-24T18:20:41.052Z,22.17
2018-12-24T18:23:09.207Z,21.20
2018-12-24T18:25:37.208Z,17.50
2018-12-24T18:28:05.287Z,16.07
2018-12-24T18:30:33.219Z,17.47
2018-12-24T18:33:01.743Z,15.20
2018-12-24T18:35:29.648Z,13.90
2018-12-24T18:37:57.559Z,12.80
2018-12-24T18:40:25.506Z,12.80
2018-12-24T18:42:53.454Z,8.90
2018-12-24T18:45:22.363Z,13.87
2018-12-24T18:47:50.662Z,15.50
2018-12-24T18:50:20.602Z,15.83
2018-12-24T18:52:48.508Z,8.20
2018-12-24T18:55:20.242Z,7.83
2018-12-24T18:57:48.161Z,8.60
2018-12-24T19:00:17.994Z,9.10
2018-12-24T19:02:45.851Z,7.80
2018-12-24T19:05:13.780Z,6.70
2018-12-24T19:07:41.815Z,5.33
2018-12-24T19:10:10.185Z,7.00
2018-12-24T19:12:38.169Z,7.77
2018-12-24T19:15:38.380Z,10.73
2018-12-24T19:18:05.607Z,13.27
2018-12-24T19:20:33.778Z,14.87
2018-12-24T19:23:01.729Z,18.00
2018-12-24T19:25:29.607Z,29.97
2018-12-24T19:27:57.543Z,29.80
2018-12-24T19:30:25.535Z,27.23
2018-12-24T19:32:53.436Z,45.03
2018-12-24T19:35:21.560Z,54.37
2018-12-24T19:37:49.450Z,55.37
2018-12-24T19:40:19.412Z,63.57
2018-12-24T19:42:47.379Z,54.00
2018-12-24T19:45:15.380Z,40.47
2018-12-24T19:47:49.848Z,35.73
2018-12-24T19:50:12.916Z,44.40
2018-12-24T19:52:41.060Z,43.60
2018-12-24T19:55:09.055Z,59.07
2018-12-24T19:57:37.053Z,54.00
2018-12-24T20:00:05.547Z,33.13
2018-12-24T20:02:33.543Z,23.37
2018-12-24T20:05:01.484Z,19.77
2018-12-24T20:07:29.317Z,17.03
2018-12-24T20:09:57.249Z,16.23
2018-12-24T20:12:25.618Z,18.50
2018-12-24T20:15:13.165Z,21.67
2018-12-24T20:17:41.235Z,16.40
2018-12-24T20:20:09.123Z,15.70
2018-12-24T20:22:37.068Z,15.67
2018-12-24T20:25:05.076Z,13.47
2018-12-24T20:27:32.984Z,12.27
2018-12-24T20:30:00.941Z,16.33
2018-12-24T20:32:29.018Z,32.27
2018-12-24T20:34:57.027Z,41.93
2018-12-24T20:37:24.927Z,28.77
2018-12-24T20:39:53.710Z,24.17
2018-12-24T20:42:21.687Z,19.40
2018-12-24T20:44:49.538Z,15.40
2018-12-24T20:47:17.406Z,14.17
2018-12-24T20:49:45.398Z,13.37
2018-12-24T20:52:13.319Z,12.47
2018-12-24T20:54:41.283Z,12.93
2018-12-24T20:57:09.227Z,12.33
2018-12-24T20:59:37.074Z,14.77
2018-12-24T21:02:04.979Z,14.77
2018-12-24T21:04:32.895Z,16.50
2018-12-24T21:07:01.335Z,13.20
2018-12-24T21:09:29.546Z,9.00
2018-12-24T21:11:57.703Z,9.10
2018-12-24T21:14:43.218Z,10.33
2018-12-24T21:17:11.618Z,13.73
2018-12-24T21:19:39.757Z,12.63
2018-12-24T21:22:07.707Z,13.67
2018-12-24T21:24:35.666Z,9.90
2018-12-24T21:27:37.113Z,10.77
2018-12-24T21:30:06.124Z,7.97
2018-12-24T21:32:33.975Z,7.63
2018-12-24T21:35:01.943Z,11.03
2018-12-24T21:37:29.879Z,9.90
2018-12-24T21:39:57.855Z,10.10
2018-12-24T21:42:25.832Z,9.20
2018-12-24T21:44:54.195Z,14.00
2018-12-24T21:47:22.070Z,9.13
2018-12-24T21:49:50.143Z,7.83
2018-12-24T21:52:18.043Z,6.50
2018-12-24T21:54:45.971Z,6.90
2018-12-24T21:57:14.147Z,6.30
2018-12-24T21:59:42.260Z,5.77
2018-12-24T22:02:10.213Z,6.27
2018-12-24T22:04:38.079Z,6.00
2018-12-24T22:07:06.051Z,6.17
2018-12-24T22:09:33.965Z,5.27
2018-12-24T22:12:01.835Z,6.10
2018-12-24T22:14:45.838Z,5.70
2018-12-24T22:17:13.792Z,4.60
2018-12-24T22:19:42.074Z,5.33
2018-12-24T22:22:09.921Z,9.13
2018-12-24T22:24:37.982Z,4.73
2018-12-24T22:27:05.861Z,4.20
2018-12-24T22:29:33.844Z,7.37
2018-12-24T22:32:01.856Z,4.03
2018-12-24T22:34:29.858Z,5.87
2018-12-24T22:36:57.694Z,8.37
2018-12-24T22:39:25.651Z,7.97
2018-12-24T22:41:53.599Z,5.60
2018-12-24T22:44:21.418Z,4.07
2018-12-24T22:46:49.470Z,5.00
2018-12-24T22:49:17.372Z,6.03
2018-12-24T22:51:45.250Z,4.13
2018-12-24T22:54:13.174Z,4.47
2018-12-24T22:56:42.316Z,3.70
2018-12-24T22:59:10.355Z,3.00
2018-12-24T23:01:38.917Z,3.20
2018-12-24T23:04:06.987Z,3.30
2018-12-24T23:06:34.970Z,3.30
2018-12-24T23:09:04.492Z,3.27
2018-12-24T23:11:32.610Z,3.20
2018-12-24T23:14:00.944Z,2.63
2018-12-24T23:16:29.020Z,3.33
2018-12-24T23:18:57.005Z,4.80
2018-12-24T23:21:25.082Z,5.73
2018-12-24T23:23:52.955Z,5.10
2018-12-24T23:26:21.087Z,4.53
2018-12-24T23:28:49.063Z,4.30
2018-12-24T23:31:16.926Z,3.50
2018-12-24T23:33:44.895Z,3.40
2018-12-24T23:36:12.820Z,4.53
2018-12-24T23:38:40.747Z,4.17
2018-12-24T23:41:08.710Z,4.40
2018-12-24T23:43:36.957Z,7.23
2018-12-24T23:46:05.168Z,4.27
2018-12-24T23:48:33.127Z,3.50
2018-12-24T23:51:01.054Z,2.87
2018-12-24T23:53:29.006Z,3.00
2018-12-24T23:55:56.979Z,3.10
2018-12-24T23:58:24.839Z,3.67
